createdAt,value
2019-01-06T00:00:29.109Z,2.60
2019-01-06T00:03:13.431Z,2.23
2019-01-06T00:05:47.223Z,2.47
2019-01-06T00:08:24.216Z,2.37
2019-01-06T00:10:55.528Z,2.03
2019-01-06T00:13:26.956Z,2.27
2019-01-06T00:16:01.521Z,2.50
2019-01-06T00:18:35.958Z,2.30
2019-01-06T00:21:19.441Z,2.67
2019-01-06T00:23:56.611Z,2.20
2019-01-06T00:26:39.492Z,2.60
2019-01-06T00:29:10.890Z,2.50
2019-01-06T00:31:44.989Z,2.60
2019-01-06T00:34:22.242Z,2.30
2019-01-06T00:36:53.630Z,2.63
2019-01-06T00:39:25.006Z,2.53
2019-01-06T00:41:59.376Z,2.50
2019-01-06T00:44:30.779Z,3.00
2019-01-06T00:47:02.154Z,2.13
2019-01-06T00:49:42.505Z,2.50
2019-01-06T00:52:16.629Z,2.83
2019-01-06T00:54:51.019Z,3.30
2019-01-06T00:57:34.424Z,2.97
2019-01-06T01:00:16.376Z,2.80
2019-01-06T01:03:02.762Z,2.70
2019-01-06T01:05:50.624Z,2.97
2019-01-06T01:08:24.782Z,2.87
2019-01-06T01:11:11.521Z,3.00
2019-01-06T01:14:01.075Z,3.17
2019-01-06T01:16:37.998Z,3.53
2019-01-06T01:19:25.415Z,3.60
2019-01-06T01:21:56.804Z,3.47
2019-01-06T01:24:40.246Z,4.63
2019-01-06T01:27:14.300Z,3.27
2019-01-06T01:29:45.690Z,3.53
2019-01-06T01:32:32.078Z,4.47
2019-01-06T01:35:03.387Z,5.07
2019-01-06T01:37:49.721Z,4.73
2019-01-06T01:40:21.036Z,4.00
2019-01-06T01:43:10.558Z,3.77
2019-01-06T01:45:49.257Z,3.33
2019-01-06T01:48:39.050Z,2.93
2019-01-06T01:51:13.157Z,3.20
2019-01-06T01:53:44.627Z,3.00
2019-01-06T01:56:22.025Z,3.17
2019-01-06T01:59:02.670Z,3.00
2019-01-06T02:01:36.702Z,2.90
2019-01-06T02:04:11.069Z,2.47
2019-01-06T02:06:42.455Z,2.37
2019-01-06T02:09:13.761Z,3.10
2019-01-06T02:11:45.153Z,2.80
2019-01-06T02:14:19.240Z,3.13
2019-01-06T02:17:02.439Z,3.00
2019-01-06T02:19:36.826Z,2.90
2019-01-06T02:22:24.126Z,3.23
2019-01-06T02:24:55.653Z,3.33
2019-01-06T02:27:43.598Z,3.30
2019-01-06T02:30:23.883Z,2.80
2019-01-06T02:33:11.566Z,2.47
2019-01-06T02:35:58.095Z,2.63
2019-01-06T02:38:46.407Z,2.97
2019-01-06T02:41:17.873Z,2.70
2019-01-06T02:44:06.784Z,2.63
2019-01-06T02:46:38.211Z,2.87
2019-01-06T02:49:12.331Z,3.10
2019-01-06T02:51:46.790Z,2.70
2019-01-06T02:54:34.725Z,2.50
2019-01-06T02:57:08.923Z,2.70
2019-01-06T02:59:43.073Z,3.60
2019-01-06T03:02:17.509Z,3.30
2019-01-06T03:05:05.091Z,3.93
2019-01-06T03:07:48.189Z,4.40
2019-01-06T03:10:35.617Z,3.90
2019-01-06T03:13:16.057Z,4.90
2019-01-06T03:15:53.241Z,5.03
2019-01-06T03:18:33.801Z,5.87
2019-01-06T03:21:11.529Z,5.13
2019-01-06T03:23:59.327Z,6.00
2019-01-06T03:26:47.407Z,5.87
2019-01-06T03:29:18.810Z,5.90
2019-01-06T03:32:02.032Z,6.57
2019-01-06T03:34:36.537Z,5.67
2019-01-06T03:37:13.788Z,6.47
2019-01-06T03:39:57.400Z,5.53
2019-01-06T03:42:42.403Z,5.60
2019-01-06T03:45:25.844Z,5.23
2019-01-06T03:48:05.882Z,4.93
2019-01-06T03:50:53.244Z,5.03
2019-01-06T03:53:24.554Z,5.63
2019-01-06T03:56:12.095Z,4.77
2019-01-06T03:58:55.675Z,4.90
2019-01-06T04:01:42.108Z,4.47
2019-01-06T04:04:33.050Z,3.80
2019-01-06T04:07:10.245Z,4.03
2019-01-06T04:09:53.597Z,3.67
2019-01-06T04:12:28.250Z,3.13
2019-01-06T04:15:11.495Z,3.70
2019-01-06T04:17:42.995Z,3.03
2019-01-06T04:20:32.420Z,3.67
2019-01-06T04:23:22.165Z,3.13
2019-01-06T04:26:11.571Z,3.40
2019-01-06T04:28:54.963Z,3.80
2019-01-06T04:31:42.878Z,3.90
2019-01-06T04:34:30.518Z,3.93
2019-01-06T04:37:07.974Z,4.10
2019-01-06T04:39:45.306Z,4.50
2019-01-06T04:42:31.950Z,3.70
2019-01-06T04:45:09.097Z,3.83
2019-01-06T04:47:43.313Z,4.33
2019-01-06T04:50:20.458Z,3.77
2019-01-06T04:53:08.110Z,4.00
2019-01-06T04:55:54.712Z,3.83
2019-01-06T04:58:39.870Z,4.27
2019-01-06T05:01:17.275Z,3.63
2019-01-06T05:03:51.550Z,3.97
2019-01-06T05:06:28.693Z,4.17
2019-01-06T05:11:55.926Z,4.03
2019-01-06T05:14:46.240Z,3.37
2019-01-06T05:17:20.367Z,4.10
2019-01-06T05:19:57.645Z,3.40
2019-01-06T05:22:36.297Z,3.97
2019-01-06T05:25:07.678Z,4.03
2019-01-06T05:27:54.137Z,3.30
2019-01-06T05:30:25.521Z,3.37
2019-01-06T05:32:56.914Z,3.50
2019-01-06T05:35:43.361Z,3.80
2019-01-06T05:38:15.879Z,3.33
2019-01-06T05:41:02.036Z,3.63
2019-01-06T05:43:36.289Z,3.70
2019-01-06T05:46:25.370Z,3.73
2019-01-06T05:49:03.470Z,3.53
2019-01-06T05:51:47.442Z,3.33
2019-01-06T05:54:19.278Z,3.33
2019-01-06T05:57:07.610Z,3.03
2019-01-06T05:59:53.766Z,3.33
2019-01-06T06:02:40.857Z,2.90
2019-01-06T06:05:12.393Z,2.97
2019-01-06T06:07:43.877Z,3.30
2019-01-06T06:10:20.978Z,3.30
2019-01-06T06:13:08.701Z,3.30
2019-01-06T06:15:40.087Z,3.03
2019-01-06T06:18:11.389Z,3.17
2019-01-06T06:20:58.834Z,3.13
2019-01-06T06:23:48.021Z,3.13
2019-01-06T06:26:35.693Z,2.60
2019-01-06T06:29:10.218Z,2.60
2019-01-06T06:31:53.827Z,2.53
2019-01-06T06:34:25.279Z,2.70
2019-01-06T06:37:08.773Z,2.90
2019-01-06T06:39:45.651Z,2.33
2019-01-06T06:42:26.223Z,2.63
2019-01-06T06:45:03.579Z,2.07
2019-01-06T06:47:34.944Z,3.00
2019-01-06T06:50:16.530Z,2.50
2019-01-06T06:52:51.152Z,2.67
2019-01-06T06:55:40.276Z,2.70
2019-01-06T06:58:15.671Z,2.37
2019-01-06T07:01:15.767Z,2.70
2019-01-06T07:04:00.242Z,2.30
2019-01-06T07:06:43.906Z,2.20
2019-01-06T07:09:27.436Z,6.27
2019-01-06T07:12:01.574Z,3.37
2019-01-06T07:14:49.004Z,2.70
2019-01-06T07:17:48.239Z,3.27
2019-01-06T07:20:25.585Z,4.80
2019-01-06T07:23:13.158Z,2.00
2019-01-06T07:25:44.485Z,2.00
2019-01-06T07:28:15.867Z,1.67
2019-01-06T07:30:49.959Z,1.90
2019-01-06T07:33:21.355Z,1.63
2019-01-06T07:36:04.742Z,1.70
2019-01-06T07:38:36.173Z,1.97
2019-01-06T07:41:16.310Z,2.00
2019-01-06T07:43:47.702Z,1.80
2019-01-06T07:46:30.944Z,1.70
2019-01-06T07:49:19.581Z,1.83
2019-01-06T07:51:56.796Z,2.20
2019-01-06T07:54:44.253Z,1.87
2019-01-06T07:57:32.045Z,2.10
2019-01-06T08:00:18.431Z,2.03
2019-01-06T08:02:58.750Z,2.10
2019-01-06T08:05:30.054Z,2.53
2019-01-06T08:08:01.437Z,2.20
2019-01-06T08:10:35.782Z,2.70
2019-01-06T08:13:07.170Z,2.00
2019-01-06T08:15:41.485Z,2.30
2019-01-06T08:18:25.078Z,2.40
2019-01-06T08:20:58.945Z,3.40
2019-01-06T08:23:42.366Z,3.20
2019-01-06T08:26:31.808Z,3.47
2019-01-06T08:29:19.721Z,3.00
2019-01-06T08:31:51.055Z,3.93
2019-01-06T08:34:28.350Z,3.97
2019-01-06T08:36:59.661Z,3.23
2019-01-06T08:39:49.158Z,3.93
2019-01-06T08:42:37.011Z,3.80
2019-01-06T08:45:26.269Z,4.33
2019-01-06T08:48:16.027Z,4.73
2019-01-06T08:50:47.413Z,4.77
2019-01-06T08:53:36.565Z,4.60
2019-01-06T08:56:07.959Z,5.67
2019-01-06T08:58:41.939Z,5.20
2019-01-06T09:01:25.471Z,5.97
2019-01-06T09:04:14.712Z,5.83
2019-01-06T09:06:46.021Z,6.13
2019-01-06T09:09:33.809Z,6.63
2019-01-06T09:12:21.496Z,6.43
2019-01-06T09:14:56.404Z,5.93
2019-01-06T09:17:30.587Z,6.57
2019-01-06T09:20:14.237Z,5.97
2019-01-06T09:22:45.632Z,6.20
2019-01-06T09:25:40.880Z,5.90
2019-01-06T09:28:26.495Z,5.47
2019-01-06T09:31:15.363Z,5.10
2019-01-06T09:34:04.917Z,4.77
2019-01-06T09:36:45.307Z,4.43
2019-01-06T09:39:33.078Z,4.53
2019-01-06T09:42:04.431Z,4.00
2019-01-06T09:44:49.515Z,3.90
2019-01-06T09:47:32.776Z,3.43
2019-01-06T09:50:13.146Z,3.27
2019-01-06T09:52:44.634Z,3.30
2019-01-06T09:55:34.313Z,2.97
2019-01-06T09:58:07.828Z,2.53
2019-01-06T10:00:55.461Z,3.17
2019-01-06T10:03:29.723Z,2.33
2019-01-06T10:06:06.350Z,2.50
2019-01-06T10:08:57.238Z,2.67
2019-01-06T10:11:37.748Z,2.60
2019-01-06T10:14:17.699Z,7.20
2019-01-06T10:17:01.290Z,5.27
2019-01-06T10:19:50.109Z,6.13
2019-01-06T10:22:21.778Z,3.30
2019-01-06T10:24:53.173Z,3.87
2019-01-06T10:27:25.290Z,3.17
2019-01-06T10:30:05.329Z,2.77
2019-01-06T10:32:45.799Z,3.37
2019-01-06T10:35:33.391Z,2.67
2019-01-06T10:38:04.705Z,2.57
2019-01-06T10:40:36.088Z,2.00
2019-01-06T10:43:07.420Z,2.00
2019-01-06T10:45:38.803Z,1.77
2019-01-06T10:48:22.140Z,1.83
2019-01-06T10:50:59.543Z,1.67
2019-01-06T10:53:31.012Z,1.80
2019-01-06T10:56:18.777Z,2.00
2019-01-06T10:58:53.081Z,1.70
2019-01-06T11:01:40.683Z,1.60
2019-01-06T11:04:28.043Z,1.70
2019-01-06T11:07:08.275Z,1.70
2019-01-06T11:09:48.480Z,1.70
2019-01-06T11:12:22.655Z,2.00
2019-01-06T11:14:57.008Z,1.80
2019-01-06T11:17:44.713Z,2.00
2019-01-06T11:20:27.987Z,1.97
2019-01-06T11:23:05.484Z,1.87
2019-01-06T11:25:52.757Z,1.93
2019-01-06T11:28:41.954Z,2.10
2019-01-06T11:31:22.535Z,1.60
2019-01-06T11:33:53.912Z,1.70
2019-01-06T11:36:25.284Z,2.07
2019-01-06T11:39:14.821Z,1.93
2019-01-06T11:41:46.199Z,2.03
2019-01-06T11:44:26.401Z,1.53
2019-01-06T11:47:00.463Z,2.10
2019-01-06T11:49:40.355Z,1.43
2019-01-06T11:52:29.925Z,1.40
2019-01-06T11:55:06.849Z,1.33
2019-01-06T11:57:44.241Z,1.33
2019-01-06T12:00:19.828Z,1.80
2019-01-06T12:02:51.319Z,1.63
2019-01-06T12:05:22.688Z,1.50
2019-01-06T12:08:06.323Z,1.53
2019-01-06T12:10:37.639Z,2.10
2019-01-06T12:13:17.859Z,1.77
2019-01-06T12:16:05.321Z,1.90
2019-01-06T12:18:50.463Z,2.10
2019-01-06T12:21:24.244Z,2.33
2019-01-06T12:24:11.557Z,1.90
2019-01-06T12:26:45.705Z,1.90
2019-01-06T12:29:17.213Z,1.90
2019-01-06T12:32:04.673Z,1.80
2019-01-06T12:34:51.893Z,2.10
2019-01-06T12:37:28.776Z,1.80
2019-01-06T12:40:02.664Z,1.87
2019-01-06T12:42:50.308Z,2.20
2019-01-06T12:45:37.963Z,2.00
2019-01-06T12:48:25.628Z,1.70
2019-01-06T12:51:12.254Z,2.23
2019-01-06T12:53:45.060Z,1.57
2019-01-06T12:56:32.789Z,2.17
2019-01-06T12:59:10.180Z,1.97
2019-01-06T13:01:47.485Z,1.50
2019-01-06T13:04:35.330Z,1.93
2019-01-06T13:07:06.625Z,1.93
2019-01-06T13:09:40.854Z,2.17
2019-01-06T13:12:15.028Z,1.90
2019-01-06T13:15:04.461Z,1.67
2019-01-06T13:17:44.929Z,2.30
2019-01-06T13:20:16.292Z,1.70
2019-01-06T13:23:03.808Z,1.93
2019-01-06T13:25:35.201Z,2.03
2019-01-06T13:28:25.156Z,1.80
2019-01-06T13:31:11.411Z,2.00
2019-01-06T13:33:48.572Z,1.83
2019-01-06T13:36:36.348Z,1.90
2019-01-06T13:39:08.663Z,1.97
2019-01-06T13:41:39.975Z,2.07
2019-01-06T13:44:26.389Z,2.37
2019-01-06T13:46:57.772Z,2.10
2019-01-06T13:49:29.072Z,2.23
2019-01-06T13:52:18.843Z,2.23
2019-01-06T13:54:52.752Z,2.80
2019-01-06T13:57:26.966Z,2.40
2019-01-06T14:00:04.186Z,2.60
2019-01-06T14:02:50.616Z,3.30
2019-01-06T14:05:38.502Z,2.53
2019-01-06T14:08:26.040Z,2.73
2019-01-06T14:11:00.051Z,2.20
2019-01-06T14:13:33.920Z,2.50
2019-01-06T14:16:17.183Z,2.20
2019-01-06T14:18:54.536Z,2.50
2019-01-06T14:21:25.843Z,2.90
2019-01-06T14:24:06.575Z,2.87
2019-01-06T14:26:50.014Z,2.50
2019-01-06T14:29:27.462Z,5.17
2019-01-06T14:31:58.906Z,5.37
2019-01-06T14:34:30.214Z,2.10
2019-01-06T14:37:17.983Z,2.60
2019-01-06T14:39:55.312Z,3.30
2019-01-06T14:42:44.534Z,3.63
2019-01-06T14:45:31.954Z,3.40
2019-01-06T14:48:19.441Z,4.27
2019-01-06T14:51:10.827Z,3.60
2019-01-06T14:54:02.626Z,3.37
2019-01-06T14:56:50.402Z,2.60
2019-01-06T14:59:21.698Z,2.60
2019-01-06T15:01:55.810Z,2.37
2019-01-06T15:04:30.298Z,2.23
2019-01-06T15:07:01.666Z,2.77
2019-01-06T15:09:51.220Z,2.90
2019-01-06T15:12:25.777Z,3.20
2019-01-06T15:14:57.111Z,3.00
2019-01-06T15:17:34.633Z,2.63
2019-01-06T15:20:22.436Z,3.20
2019-01-06T15:22:53.945Z,3.27
2019-01-06T15:25:31.385Z,2.90
2019-01-06T15:28:02.713Z,3.23
2019-01-06T15:30:34.076Z,4.03
2019-01-06T15:33:21.546Z,3.57
2019-01-06T15:36:09.304Z,3.60
2019-01-06T15:38:49.389Z,3.97
2019-01-06T15:41:20.786Z,3.77
2019-01-06T15:43:57.652Z,4.23
2019-01-06T15:46:29.047Z,3.27
2019-01-06T15:49:16.551Z,4.03
2019-01-06T15:51:53.852Z,4.00
2019-01-06T15:54:28.172Z,4.30
2019-01-06T15:57:17.734Z,4.03
2019-01-06T16:00:04.199Z,4.60
2019-01-06T16:02:38.370Z,5.03
2019-01-06T16:05:09.767Z,4.67
2019-01-06T16:07:41.089Z,4.97
2019-01-06T16:10:18.293Z,4.33
2019-01-06T16:12:58.546Z,4.80
2019-01-06T16:15:43.480Z,5.13
2019-01-06T16:18:17.610Z,4.67
2019-01-06T16:20:57.877Z,3.97
2019-01-06T16:23:29.268Z,4.27
2019-01-06T16:26:06.442Z,4.20
2019-01-06T16:28:46.856Z,4.43
2019-01-06T16:31:20.980Z,4.20
2019-01-06T16:33:52.667Z,4.00
2019-01-06T16:36:39.955Z,4.17
2019-01-06T16:39:29.499Z,3.60
2019-01-06T16:42:01.035Z,3.80
2019-01-06T16:44:32.361Z,4.60
2019-01-06T16:47:04.260Z,4.30
2019-01-06T16:49:51.970Z,3.90
2019-01-06T16:52:23.675Z,4.23
2019-01-06T16:54:55.060Z,4.47
2019-01-06T16:57:35.439Z,3.90
2019-01-06T17:00:09.046Z,3.83
2019-01-06T17:02:43.294Z,3.80
2019-01-06T17:05:17.375Z,3.80
2019-01-06T17:07:51.761Z,4.20
2019-01-06T17:10:23.102Z,3.87
2019-01-06T17:12:57.071Z,3.60
2019-01-06T17:15:44.570Z,4.07
2019-01-06T17:18:24.730Z,4.23
2019-01-06T17:21:12.346Z,4.30
2019-01-06T17:23:59.657Z,4.80
2019-01-06T17:26:47.097Z,4.17
2019-01-06T17:29:30.712Z,4.30
2019-01-06T17:32:11.039Z,4.10
2019-01-06T17:34:48.570Z,4.53
2019-01-06T17:37:29.049Z,3.77
2019-01-06T17:40:09.523Z,3.70
2019-01-06T17:42:41.972Z,4.50
2019-01-06T17:45:25.323Z,4.47
2019-01-06T17:48:12.835Z,4.10
2019-01-06T17:50:45.321Z,3.70
2019-01-06T17:53:22.601Z,3.77
2019-01-06T17:56:02.519Z,4.27
2019-01-06T17:58:50.226Z,4.60
2019-01-06T18:01:36.704Z,4.30
2019-01-06T18:04:26.505Z,5.23
2019-01-06T18:07:03.573Z,4.83
2019-01-06T18:09:34.936Z,4.20
2019-01-06T18:12:12.082Z,38.93
2019-01-06T18:14:55.399Z,9.40
2019-01-06T18:17:29.248Z,7.53
2019-01-06T18:20:09.193Z,7.80
2019-01-06T18:22:43.123Z,5.80
2019-01-06T18:25:30.827Z,6.93
2019-01-06T18:28:18.426Z,4.03
2019-01-06T18:30:58.911Z,3.97
2019-01-06T18:33:42.168Z,4.90
2019-01-06T18:36:22.416Z,4.37
2019-01-06T18:39:08.755Z,4.33
2019-01-06T18:41:43.199Z,4.30
2019-01-06T18:44:19.002Z,4.00
2019-01-06T18:47:06.787Z,3.93
2019-01-06T18:49:38.201Z,4.47
2019-01-06T18:52:09.571Z,4.67
2019-01-06T18:54:43.604Z,4.97
2019-01-06T18:57:30.249Z,5.57
2019-01-06T19:00:06.213Z,5.23
2019-01-06T19:02:40.884Z,5.73
2019-01-06T19:05:28.358Z,8.03
2019-01-06T19:08:16.786Z,18.43
2019-01-06T19:11:04.859Z,44.80
2019-01-06T19:13:43.199Z,18.40
2019-01-06T19:16:14.512Z,13.87
2019-01-06T19:19:02.359Z,7.63
2019-01-06T19:21:44.330Z,19.23
2019-01-06T19:24:32.255Z,11.77
2019-01-06T19:27:18.378Z,22.67
2019-01-06T19:29:52.737Z,12.53
2019-01-06T19:32:38.897Z,63.73
2019-01-06T19:35:28.121Z,63.33
2019-01-06T19:38:15.721Z,25.43
2019-01-06T19:41:03.401Z,24.10
2019-01-06T19:43:51.467Z,9.70
2019-01-06T19:46:39.159Z,6.53
2019-01-06T19:49:25.389Z,6.87
2019-01-06T19:52:13.328Z,7.33
2019-01-06T19:54:59.963Z,7.70
2019-01-06T19:57:36.883Z,7.03
2019-01-06T20:00:09.918Z,6.90
2019-01-06T20:02:56.598Z,7.07
2019-01-06T20:05:46.288Z,7.80
2019-01-06T20:08:26.640Z,6.93
2019-01-06T20:11:16.004Z,6.77
2019-01-06T20:13:54.411Z,7.10
2019-01-06T20:16:35.144Z,6.23
2019-01-06T20:19:14.066Z,6.83
2019-01-06T20:21:45.449Z,6.37
2019-01-06T20:24:16.751Z,6.67
2019-01-06T20:26:54.257Z,6.67
2019-01-06T20:29:42.125Z,6.83
2019-01-06T20:32:20.090Z,7.20
2019-01-06T20:35:12.035Z,7.47
2019-01-06T20:37:59.431Z,7.07
2019-01-06T20:40:37.669Z,6.73
2019-01-06T20:43:21.332Z,7.43
2019-01-06T20:46:08.823Z,7.07
2019-01-06T20:48:43.975Z,6.50
2019-01-06T20:51:21.695Z,6.50
2019-01-06T20:53:53.788Z,6.40
2019-01-06T20:56:41.052Z,7.03
2019-01-06T20:59:17.040Z,6.43
2019-01-06T21:01:57.840Z,6.70
2019-01-06T21:04:29.184Z,7.07
2019-01-06T21:07:17.224Z,7.93
2019-01-06T21:09:48.704Z,7.40
2019-01-06T21:12:36.307Z,7.13
2019-01-06T21:15:13.430Z,7.23
2019-01-06T21:17:50.297Z,6.70
2019-01-06T21:20:21.682Z,6.87
2019-01-06T21:23:07.947Z,6.97
2019-01-06T21:25:48.288Z,6.13
2019-01-06T21:28:19.593Z,7.63
2019-01-06T21:30:56.721Z,6.83
2019-01-06T21:33:28.021Z,7.20
2019-01-06T21:36:15.613Z,6.37
2019-01-06T21:38:49.751Z,6.67
2019-01-06T21:41:33.099Z,5.93
2019-01-06T21:44:22.460Z,6.87
2019-01-06T21:47:05.623Z,5.37
2019-01-06T21:49:39.727Z,5.90
2019-01-06T21:52:26.205Z,5.40
2019-01-06T21:55:13.842Z,6.10
2019-01-06T21:57:50.757Z,6.13
2019-01-06T22:00:38.603Z,5.53
2019-01-06T22:03:16.249Z,6.43
2019-01-06T22:05:56.525Z,5.13
2019-01-06T22:08:27.832Z,5.50
2019-01-06T22:11:15.502Z,5.80
2019-01-06T22:13:56.053Z,6.17
2019-01-06T22:16:39.053Z,6.20
2019-01-06T22:19:16.558Z,6.80
2019-01-06T22:21:53.621Z,7.10
2019-01-06T22:24:24.999Z,6.10
2019-01-06T22:26:56.471Z,5.90
2019-01-06T22:29:44.093Z,6.07
2019-01-06T22:32:18.245Z,6.63
2019-01-06T22:34:58.227Z,5.17
2019-01-06T22:37:44.727Z,5.07
2019-01-06T22:40:33.995Z,5.40
2019-01-06T22:43:05.473Z,5.47
2019-01-06T22:45:42.970Z,6.00
2019-01-06T22:48:23.019Z,5.17
2019-01-06T22:51:00.323Z,4.97
2019-01-06T22:53:47.817Z,5.20
2019-01-06T22:56:35.625Z,5.33
2019-01-06T22:59:10.149Z,5.33
2019-01-06T23:01:41.620Z,5.90
2019-01-06T23:04:12.958Z,6.00
2019-01-06T23:07:02.120Z,5.87
2019-01-06T23:09:36.478Z,6.40
2019-01-06T23:12:13.740Z,6.23
2019-01-06T23:14:47.547Z,6.90
2019-01-06T23:17:35.196Z,5.77
2019-01-06T23:20:24.535Z,5.83
2019-01-06T23:22:58.580Z,6.57
2019-01-06T23:25:46.358Z,5.80
2019-01-06T23:28:32.857Z,5.57
2019-01-06T23:31:20.213Z,5.63
2019-01-06T23:34:05.097Z,6.17
2019-01-06T23:36:36.486Z,6.53
2019-01-06T23:39:24.560Z,5.97
2019-01-06T23:42:07.844Z,7.00
2019-01-06T23:44:51.307Z,6.07
2019-01-06T23:47:31.516Z,6.87
2019-01-06T23:50:18.129Z,6.83
2019-01-06T23:53:05.564Z,7.20
2019-01-06T23:55:53.328Z,7.90
2019-01-06T23:58:42.841Z,8.37
